createdAt,value
2018-11-13T00:04:33.921Z,5
2018-11-13T00:09:36.371Z,4
2018-11-13T00:14:38.795Z,5
2018-11-13T00:19:41.233Z,5
2018-11-13T00:24:43.749Z,4
2018-11-13T00:29:46.110Z,5
2018-11-13T00:34:48.559Z,5
2018-11-13T00:39:51.049Z,5
2018-11-13T00:44:53.443Z,5
2018-11-13T00:49:55.872Z,7
2018-11-13T00:54:58.603Z,5
2018-11-13T01:00:00.765Z,3
2018-11-13T01:05:03.311Z,4
2018-11-13T01:10:05.732Z,5
2018-11-13T01:15:08.665Z,4
2018-11-13T01:20:10.542Z,4
2018-11-13T01:25:12.952Z,4
2018-11-13T01:30:15.398Z,3
2018-11-13T01:35:17.890Z,5
2018-11-13T01:40:20.269Z,5
2018-11-13T01:45:22.795Z,5
2018-11-13T01:50:25.173Z,4
2018-11-13T01:55:27.592Z,4
2018-11-13T02:00:30.041Z,5
2018-11-13T02:05:32.489Z,5
2018-11-13T02:10:34.913Z,4
2018-11-13T02:15:37.397Z,3
2018-11-13T02:20:39.888Z,3
2018-11-13T02:25:42.286Z,3
2018-11-13T02:30:44.678Z,4
2018-11-13T02:35:47.124Z,3
2018-11-13T02:40:49.555Z,3
2018-11-13T02:45:52.003Z,4
2018-11-13T02:50:54.438Z,4
2018-11-13T02:55:56.875Z,3
2018-11-13T03:00:59.324Z,3
2018-11-13T03:06:01.761Z,5
2018-11-13T03:11:04.184Z,4
2018-11-13T03:16:06.638Z,4
2018-11-13T03:21:09.102Z,3
2018-11-13T03:26:11.552Z,7
2018-11-13T03:31:14.101Z,3
2018-11-13T03:36:16.492Z,5
2018-11-13T03:41:18.844Z,4
2018-11-13T03:46:21.296Z,3
2018-11-13T03:51:23.728Z,4
2018-11-13T03:56:26.151Z,4
2018-11-13T04:01:28.602Z,5
2018-11-13T04:06:31.038Z,7
2018-11-13T04:11:33.494Z,3
2018-11-13T04:16:35.950Z,4
2018-11-13T04:21:38.359Z,3
2018-11-13T04:26:40.816Z,4
2018-11-13T04:31:43.281Z,5
2018-11-13T04:36:45.685Z,4
2018-11-13T04:41:48.127Z,3
2018-11-13T04:46:50.558Z,3
2018-11-13T04:51:53.010Z,3
2018-11-13T04:56:55.434Z,5
2018-11-13T05:01:57.984Z,4
2018-11-13T05:07:00.362Z,3
2018-11-13T05:12:02.781Z,9
2018-11-13T05:17:05.263Z,3
2018-11-13T05:22:07.644Z,3
2018-11-13T05:27:10.116Z,4
2018-11-13T05:32:17.533Z,8
2018-11-13T05:37:14.982Z,4
2018-11-13T05:42:17.395Z,6
2018-11-13T05:47:19.928Z,4
2018-11-13T05:52:22.294Z,4
2018-11-13T05:57:24.735Z,2
2018-11-13T06:02:27.229Z,2
2018-11-13T06:07:29.701Z,2
2018-11-13T06:12:32.035Z,2
2018-11-13T06:17:34.489Z,3
2018-11-13T06:22:37.080Z,3
2018-11-13T06:27:39.380Z,3
2018-11-13T06:32:41.818Z,2
2018-11-13T06:37:44.326Z,4
2018-11-13T06:42:46.678Z,2
2018-11-13T06:47:49.143Z,5
2018-11-13T06:52:51.568Z,3
2018-11-13T06:57:54.027Z,3
2018-11-13T07:02:56.438Z,4
2018-11-13T07:07:58.886Z,4
2018-11-13T07:13:01.581Z,20
2018-11-13T07:18:03.770Z,13
2018-11-13T07:23:06.199Z,30
2018-11-13T07:28:08.688Z,12
2018-11-13T07:33:11.101Z,7
2018-11-13T07:38:13.522Z,6
2018-11-13T07:43:15.955Z,13
2018-11-13T07:48:18.409Z,33
2018-11-13T07:53:20.867Z,14
2018-11-13T07:58:23.300Z,5
2018-11-13T08:03:25.903Z,8
2018-11-13T08:08:28.175Z,17
2018-11-13T08:13:30.656Z,17
2018-11-13T08:18:33.104Z,11
2018-11-13T08:23:35.495Z,26
2018-11-13T08:28:37.980Z,11
2018-11-13T08:33:40.376Z,12
2018-11-13T08:38:42.823Z,23
2018-11-13T08:43:45.302Z,24
2018-11-13T08:48:47.698Z,37
2018-11-13T08:53:50.130Z,33
2018-11-13T08:58:52.872Z,23
2018-11-13T09:03:55.002Z,12
2018-11-13T09:08:57.466Z,13
2018-11-13T09:13:59.886Z,16
2018-11-13T09:19:02.488Z,13
2018-11-13T09:24:04.774Z,12
2018-11-13T09:29:07.220Z,11
2018-11-13T09:34:09.659Z,13
2018-11-13T09:39:12.213Z,10
2018-11-13T09:44:14.526Z,10
2018-11-13T09:49:16.968Z,12
2018-11-13T09:54:19.446Z,10
2018-11-13T09:59:21.993Z,11
2018-11-13T10:04:24.690Z,8
2018-11-13T10:09:26.733Z,6
2018-11-13T10:14:29.197Z,6
2018-11-13T10:19:31.604Z,4
2018-11-13T10:24:34.059Z,5
2018-11-13T10:29:36.518Z,6
2018-11-13T10:34:38.944Z,5
2018-11-13T10:39:41.381Z,7
2018-11-13T10:44:43.808Z,6
2018-11-13T10:49:46.257Z,11
2018-11-13T10:54:48.691Z,8
2018-11-13T10:59:51.129Z,10
2018-11-13T11:04:53.583Z,4
2018-11-13T11:09:56.033Z,9
2018-11-13T11:14:58.469Z,6
2018-11-13T11:20:00.929Z,31
2018-11-13T11:25:03.363Z,12
2018-11-13T11:30:05.778Z,10
2018-11-13T11:45:13.122Z,7
2018-11-13T11:50:15.553Z,5
2018-11-13T11:55:17.978Z,6
2018-11-13T12:00:20.505Z,10
2018-11-13T12:05:22.864Z,16
2018-11-13T12:10:25.318Z,12
2018-11-13T12:15:27.758Z,15
2018-11-13T12:20:30.177Z,13
2018-11-13T12:25:32.689Z,19
2018-11-13T12:30:35.093Z,30
2018-11-13T12:35:37.512Z,21
2018-11-13T12:40:41.624Z,13
2018-11-13T12:45:42.381Z,17
2018-11-13T12:50:44.823Z,7
2018-11-13T12:55:47.331Z,10
2018-11-13T13:00:49.703Z,17
2018-11-13T13:05:52.135Z,6
2018-11-13T13:10:54.579Z,9
2018-11-13T13:15:57.038Z,12
2018-11-13T13:20:59.527Z,9
2018-11-13T13:26:01.897Z,11
2018-11-13T13:31:04.352Z,9
2018-11-13T13:36:06.795Z,5
2018-11-13T13:41:09.226Z,7
2018-11-13T13:46:11.715Z,6
2018-11-13T13:51:14.142Z,4
2018-11-13T13:56:16.536Z,8
2018-11-13T14:01:18.983Z,5
2018-11-13T14:06:21.419Z,5
2018-11-13T14:11:23.942Z,4
2018-11-13T14:16:26.301Z,4
2018-11-13T14:21:28.745Z,4
2018-11-13T14:26:31.212Z,4
2018-11-13T14:31:33.655Z,3
2018-11-13T14:36:36.063Z,4
2018-11-13T14:41:38.499Z,3
2018-11-13T14:46:41.106Z,3
2018-11-13T14:51:43.425Z,2
2018-11-13T14:56:45.829Z,5
2018-11-13T15:01:48.273Z,3
2018-11-13T15:06:50.698Z,2
2018-11-13T15:11:53.160Z,2
2018-11-13T15:16:55.590Z,3
2018-11-13T15:21:58.075Z,1
2018-11-13T15:27:00.449Z,1
2018-11-13T15:32:02.915Z,2
2018-11-13T15:37:05.336Z,1
2018-11-13T15:42:07.797Z,4
2018-11-13T15:47:10.225Z,2
2018-11-13T15:52:12.799Z,2
2018-11-13T15:57:15.111Z,2
2018-11-13T16:02:17.552Z,1
2018-11-13T16:07:19.985Z,1
2018-11-13T16:12:22.428Z,1
2018-11-13T16:17:24.883Z,1
2018-11-13T16:22:27.345Z,2
2018-11-13T16:27:29.767Z,1
2018-11-13T16:32:32.190Z,4
2018-11-13T16:37:34.617Z,3
2018-11-13T16:42:37.055Z,1
2018-11-13T16:47:39.522Z,2
2018-11-13T16:52:41.942Z,2
2018-11-13T16:57:44.386Z,3
2018-11-13T17:02:46.847Z,2
2018-11-13T17:07:49.262Z,2
2018-11-13T17:12:51.737Z,2
2018-11-13T17:17:54.161Z,3
2018-11-13T17:22:56.580Z,3
2018-11-13T17:27:59.056Z,3
2018-11-13T17:33:01.484Z,3
2018-11-13T17:38:04.168Z,5
2018-11-13T17:43:06.353Z,4
2018-11-13T17:48:08.800Z,4
2018-11-13T17:53:11.236Z,5
2018-11-13T17:58:13.670Z,3
2018-11-13T18:03:16.294Z,2
2018-11-13T18:08:18.578Z,3
2018-11-13T18:13:20.996Z,2
2018-11-13T18:18:23.464Z,3
2018-11-13T18:23:25.915Z,3
2018-11-13T18:28:28.649Z,5
2018-11-13T18:33:30.780Z,3
2018-11-13T18:38:33.331Z,4
2018-11-13T18:43:35.649Z,3
2018-11-13T18:48:38.084Z,3
2018-11-13T18:53:40.576Z,4
2018-11-13T18:58:42.964Z,4
2018-11-13T19:03:45.412Z,3
2018-11-13T19:08:47.825Z,4
2018-11-13T19:13:50.292Z,4
2018-11-13T19:18:52.935Z,5
2018-11-13T19:23:55.219Z,3
2018-11-13T19:28:57.592Z,3
2018-11-13T19:34:00.048Z,3
2018-11-13T19:39:02.492Z,3
2018-11-13T19:44:04.933Z,3
2018-11-13T19:49:07.388Z,4
2018-11-13T19:54:09.822Z,5
2018-11-13T19:59:12.287Z,5
2018-11-13T20:04:14.917Z,4
2018-11-13T20:09:17.157Z,4
2018-11-13T20:14:19.619Z,4
2018-11-13T20:19:22.055Z,3
2018-11-13T20:24:24.482Z,3
2018-11-13T20:29:27.111Z,3
2018-11-13T20:34:29.372Z,3
2018-11-13T20:39:31.814Z,3
2018-11-13T20:44:34.276Z,3
2018-11-13T20:49:36.739Z,5
2018-11-13T20:54:39.296Z,5
2018-11-13T20:59:41.609Z,5
2018-11-13T21:04:44.026Z,5
2018-11-13T21:09:46.482Z,4
2018-11-13T21:14:48.906Z,5
2018-11-13T21:19:51.330Z,6
2018-11-13T21:24:53.822Z,4
2018-11-13T21:29:56.296Z,5
2018-11-13T21:34:58.653Z,6
2018-11-13T21:40:01.090Z,4
2018-11-13T21:45:03.524Z,4
2018-11-13T21:50:06.192Z,5
2018-11-13T21:55:08.450Z,4
2018-11-13T22:00:10.854Z,4
2018-11-13T22:05:13.411Z,5
2018-11-13T22:10:15.756Z,4
2018-11-13T22:15:18.178Z,5
2018-11-13T22:20:20.676Z,5
2018-11-13T22:25:23.156Z,3
2018-11-13T22:30:25.500Z,5
2018-11-13T22:35:27.946Z,5
2018-11-13T22:40:30.403Z,3
2018-11-13T22:45:32.857Z,4
2018-11-13T22:50:35.262Z,6
2018-11-13T22:55:37.698Z,3
2018-11-13T23:00:40.137Z,4
2018-11-13T23:05:42.693Z,5
2018-11-13T23:10:45.038Z,5
2018-11-13T23:15:47.481Z,5
2018-11-13T23:20:49.893Z,6
2018-11-13T23:25:52.423Z,5
2018-11-13T23:30:54.785Z,5
2018-11-13T23:35:57.365Z,7
2018-11-13T23:40:59.645Z,5
2018-11-13T23:46:02.100Z,6
2018-11-13T23:51:04.564Z,6
2018-11-13T23:56:06.968Z,9
